Time;durP1;ratioP1;P1;durP2;ratioP2;P2;SDS_P1;SDS_P2;PMS_P1;PMS_P2;Temp;Humidity;BMP_temperature;BMP_pressure;BME280_temperature;BME280_humidity;BME280_pressure;Samples;Min_cycle;Max_cycle;Signal;HPM_P1;HPM_P2
2023/10/01 00:00:25;;;;;;;20.35;18.42;;;11.60;99.90;;;;;;4926275;29;20056;-81
2023/10/01 00:02:52;;;;;;;21.27;19.15;;;11.60;99.90;;;;;;4921909;28;20051;-80
2023/10/01 00:05:22;;;;;;;22.48;18.58;;;11.60;99.90;;;;;;4923556;28;20143;-81
2023/10/01 00:07:51;;;;;;;19.67;17.92;;;11.70;99.90;;;;;;4921404;28;20084;-80
2023/10/01 00:10:20;;;;;;;20.50;18.50;;;11.70;99.90;;;;;;4939705;28;20086;-81
2023/10/01 00:12:50;;;;;;;19.00;17.48;;;11.70;99.90;;;;;;4920188;28;20047;-81
2023/10/01 00:15:21;;;;;;;20.50;18.50;;;11.70;99.90;;;;;;4934894;28;20048;-80
2023/10/01 00:17:48;;;;;;;20.23;18.23;;;11.80;99.90;;;;;;4937170;28;20047;-80
2023/10/01 00:20:23;;;;;;;20.60;18.70;;;11.80;99.90;;;;;;4937246;28;21823;-80
2023/10/01 00:23:05;;;;;;;22.83;18.45;;;11.80;99.90;;;;;;4923121;28;20043;-81
2023/10/01 00:25:34;;;;;;;22.27;19.05;;;11.80;99.90;;;;;;4938838;28;20035;-80
2023/10/01 00:28:04;;;;;;;20.60;18.85;;;11.90;99.90;;;;;;4919392;28;20048;-81
2023/10/01 00:30:31;;;;;;;19.90;18.17;;;11.90;99.90;;;;;;4909480;29;20197;-79
2023/10/01 00:33:05;;;;;;;19.55;17.85;;;11.80;99.90;;;;;;4918951;28;20078;-79
2023/10/01 00:35:32;;;;;;;20.70;18.75;;;11.80;99.90;;;;;;4941167;28;20291;-81
2023/10/01 00:37:59;;;;;;;21.20;19.35;;;11.90;99.90;;;;;;4926032;28;20074;-81
2023/10/01 00:40:29;;;;;;;21.15;19.23;;;11.90;99.90;;;;;;4944498;28;20051;-80
2023/10/01 00:42:57;;;;;;;25.40;19.67;;;11.90;99.90;;;;;;4935803;28;20061;-79
2023/10/01 00:45:25;;;;;;;23.27;20.92;;;12.00;99.90;;;;;;4946256;28;20043;-79
2023/10/01 00:47:52;;;;;;;22.25;20.25;;;12.00;99.90;;;;;;4944482;28;20070;-79
2023/10/01 00:50:21;;;;;;;26.52;19.67;;;12.00;99.90;;;;;;4949651;28;20195;-79
2023/10/01 00:52:51;;;;;;;22.48;20.33;;;12.10;99.90;;;;;;4940388;28;20107;-81
2023/10/01 00:55:20;;;;;;;23.08;20.92;;;12.10;99.90;;;;;;4952986;28;20047;-81
2023/10/01 00:57:49;;;;;;;22.75;20.52;;;12.10;99.90;;;;;;4939028;28;20043;-79
2023/10/01 01:00:18;;;;;;;23.88;21.60;;;12.20;99.90;;;;;;4925019;28;20531;-80
2023/10/01 01:05:35;;;;;;;23.48;21.50;;;12.30;99.90;;;;;;4940806;28;20126;-80
2023/10/01 01:08:07;;;;;;;23.92;21.80;;;12.40;99.90;;;;;;4906517;28;20130;-81
2023/10/01 01:10:41;;;;;;;23.52;21.13;;;12.30;99.90;;;;;;4926612;29;20095;-80
2023/10/01 01:13:16;;;;;;;25.55;22.92;;;12.30;99.90;;;;;;4924141;28;20053;-81
2023/10/01 01:15:46;;;;;;;23.27;21.42;;;12.30;99.90;;;;;;4919830;28;20051;-79
2023/10/01 01:18:14;;;;;;;24.05;21.85;;;12.20;99.90;;;;;;4921708;28;20055;-80
2023/10/01 01:20:45;;;;;;;23.67;21.55;;;12.20;99.90;;;;;;4957650;28;20054;-80
2023/10/01 01:23:18;;;;;;;23.75;21.48;;;12.30;99.90;;;;;;4949318;28;20097;-81
2023/10/01 01:25:46;;;;;;;24.05;21.80;;;12.40;99.90;;;;;;4920020;28;20054;-80
2023/10/01 01:28:24;;;;;;;23.25;21.23;;;12.50;99.90;;;;;;4940959;28;20545;-80
2023/10/01 01:30:52;;;;;;;23.10;20.80;;;12.50;99.90;;;;;;4934030;28;20043;-79
2023/10/01 01:33:26;;;;;;;22.75;20.70;;;12.40;99.90;;;;;;4923906;28;20702;-80
2023/10/01 01:35:54;;;;;;;21.57;19.67;;;12.50;99.90;;;;;;4921764;28;20133;-81
2023/10/01 01:38:21;;;;;;;22.98;20.95;;;12.50;99.90;;;;;;4939420;28;20059;-81
2023/10/01 01:40:51;;;;;;;22.25;20.10;;;12.30;99.90;;;;;;4919767;28;20534;-80
2023/10/01 01:43:30;;;;;;;22.15;19.90;;;12.30;99.90;;;;;;4926381;28;20054;-80
2023/10/01 01:46:03;;;;;;;22.50;20.33;;;12.30;99.90;;;;;;4940296;28;20134;-80
2023/10/01 01:48:30;;;;;;;21.80;19.60;;;12.30;99.90;;;;;;4941983;28;20051;-78
2023/10/01 01:51:00;;;;;;;21.73;19.45;;;12.40;99.90;;;;;;4936855;28;20055;-80
2023/10/01 01:53:34;;;;;;;21.63;19.75;;;12.40;99.90;;;;;;4939828;28;20059;-79
2023/10/01 01:56:04;;;;;;;;;;;12.40;99.90;;;;;;4920996;28;20078;-76
2023/10/01 01:58:32;;;;;;;22.10;20.25;;;12.40;99.90;;;;;;4926080;29;20902;-80
2023/10/01 02:01:08;;;;;;;22.27;20.05;;;12.40;99.90;;;;;;4910487;28;20282;-79
2023/10/01 02:03:44;;;;;;;22.73;20.65;;;12.50;99.90;;;;;;4923473;28;20055;-79
2023/10/01 02:06:13;;;;;;;;;;;12.50;99.90;;;;;;4923678;28;20497;-79
2023/10/01 02:08:48;;;;;;;24.75;21.48;;;12.70;99.90;;;;;;4939208;28;19949;-77
2023/10/01 02:11:16;;;;;;;22.98;20.90;;;12.80;99.90;;;;;;4907686;28;20050;-79
2023/10/01 02:13:46;;;;;;;23.40;21.27;;;12.80;99.90;;;;;;4923021;28;20040;-80
2023/10/01 02:16:30;;;;;;;24.02;21.85;;;12.70;99.90;;;;;;4934603;28;20134;-79
2023/10/01 02:19:17;;;;;;;23.67;21.45;;;12.80;99.90;;;;;;4922151;28;20047;-79
2023/10/01 02:22:05;;;;;;;22.73;20.67;;;12.80;99.90;;;;;;4927378;28;20075;-79
2023/10/01 02:27:18;;;;;;;22.67;20.80;;;12.80;99.90;;;;;;4923165;28;20065;-79
2023/10/01 02:30:11;;;;;;;22.63;20.75;;;12.80;99.90;;;;;;4925125;28;20433;-78
2023/10/01 02:32:49;;;;;;;23.02;21.13;;;12.80;99.90;;;;;;4931919;28;20133;-79
2023/10/01 02:35:35;;;;;;;23.02;21.15;;;12.80;99.90;;;;;;4938371;28;20209;-79
2023/10/01 02:38:05;;;;;;;;;;;12.80;99.90;;;;;;4921588;28;20058;-79
2023/10/01 02:40:37;;;;;;;22.25;20.65;;;12.90;99.90;;;;;;4923215;29;19940;-79
2023/10/01 02:43:12;;;;;;;24.52;22.33;;;12.80;99.90;;;;;;4935961;28;20062;-78
2023/10/01 02:45:42;;;;;;;23.45;21.23;;;12.90;99.90;;;;;;4943629;28;20051;-78
2023/10/01 02:48:16;;;;;;;24.02;21.98;;;12.90;99.90;;;;;;4922509;28;20532;-82
2023/10/01 02:50:45;;;;;;;24.05;21.98;;;13.00;99.90;;;;;;4927860;28;20063;-79
2023/10/01 02:53:14;;;;;;;24.25;22.25;;;13.00;99.90;;;;;;4936643;28;20043;-78
2023/10/01 02:55:45;;;;;;;23.90;21.67;;;13.00;99.90;;;;;;4936595;28;20667;-79
2023/10/01 02:58:28;;;;;;;25.10;22.90;;;13.00;99.90;;;;;;4937008;28;20062;-79
2023/10/01 03:00:56;;;;;;;23.33;21.30;;;13.00;99.90;;;;;;4935056;28;20054;-80
2023/10/01 03:03:32;;;;;;;24.00;21.85;;;13.00;99.90;;;;;;4934222;28;20134;-80
2023/10/01 03:06:08;;;;;;;24.02;21.92;;;13.00;99.90;;;;;;4920832;28;20158;-80
2023/10/01 03:11:22;;;;;;;23.05;21.15;;;13.10;99.90;;;;;;4935664;28;20078;-79
2023/10/01 03:13:54;;;;;;;22.45;20.63;;;13.10;99.90;;;;;;4905319;28;20146;-79
2023/10/01 03:16:42;;;;;;;23.73;21.73;;;13.20;99.90;;;;;;4919228;28;20047;-81
2023/10/01 03:19:25;;;;;;;24.08;22.08;;;13.30;99.90;;;;;;4918064;28;20079;-79
2023/10/01 03:24:41;;;;;;;23.27;21.17;;;13.30;99.90;;;;;;4939383;28;20127;-79
2023/10/01 03:30:00;;;;;;;23.95;21.73;;;13.20;99.90;;;;;;4941791;28;20039;-79
2023/10/01 03:32:29;;;;;;;23.50;21.50;;;13.30;99.90;;;;;;4934142;28;20135;-80
2023/10/01 03:34:58;;;;;;;24.75;22.50;;;13.20;99.90;;;;;;4924691;28;20043;-79
2023/10/01 03:37:28;;;;;;;24.17;21.88;;;13.30;99.90;;;;;;4930505;28;20065;-80
2023/10/01 03:40:09;;;;;;;23.27;21.25;;;13.30;99.90;;;;;;4943299;28;20058;-80
2023/10/01 03:42:37;;;;;;;22.95;21.15;;;13.30;99.90;;;;;;4930948;29;20110;-78
2023/10/01 03:48:10;;;;;;;22.10;20.10;;;13.30;99.90;;;;;;4927698;28;20043;-81
2023/10/01 03:50:45;;;;;;;23.02;20.95;;;13.30;99.90;;;;;;4938396;28;20039;-80
2023/10/01 03:53:12;;;;;;;22.58;20.70;;;13.30;99.90;;;;;;4926426;28;20089;-80
2023/10/01 03:55:42;;;;;;;22.08;19.90;;;13.30;99.90;;;;;;4927417;28;20645;-80
2023/10/01 03:58:18;;;;;;;22.50;20.45;;;13.30;99.90;;;;;;4940653;28;20071;-79
2023/10/01 04:00:53;;;;;;;22.45;20.33;;;13.20;99.90;;;;;;4926009;28;20051;-80
2023/10/01 04:03:21;;;;;;;22.70;20.63;;;13.20;99.90;;;;;;4943033;28;20113;-81
2023/10/01 04:05:56;;;;;;;22.35;20.42;;;13.20;99.90;;;;;;4922889;28;20036;-82
2023/10/01 04:08:23;;;;;;;;;;;13.20;99.90;;;;;;4939580;28;20047;-81
2023/10/01 04:10:57;;;;;;;22.00;20.13;;;13.20;99.90;;;;;;4926770;28;19922;-83
2023/10/01 04:13:27;;;;;;;22.77;20.85;;;13.20;99.90;;;;;;4945232;28;20047;-81
2023/10/01 04:15:55;;;;;;;23.35;21.00;;;13.20;99.90;;;;;;4940718;28;20062;-80
2023/10/01 04:18:24;;;;;;;22.40;20.70;;;13.30;99.90;;;;;;4962838;28;20039;-80
2023/10/01 04:23:33;;;;;;;21.67;19.77;;;13.40;99.90;;;;;;4946670;28;20066;-79
2023/10/01 04:26:06;;;;;;;21.02;19.25;;;13.40;99.90;;;;;;4960113;28;20106;-79
2023/10/01 04:28:36;;;;;;;22.73;20.63;;;13.40;99.90;;;;;;4946923;28;20043;-80
2023/10/01 04:31:09;;;;;;;22.08;20.15;;;13.40;99.90;;;;;;4935477;28;20256;-79
2023/10/01 04:33:40;;;;;;;22.83;20.92;;;13.40;99.90;;;;;;4929446;28;20376;-79
2023/10/01 04:36:10;;;;;;;21.88;19.85;;;13.40;99.90;;;;;;4944759;28;20054;-79
2023/10/01 04:38:39;;;;;;;22.58;20.60;;;13.40;99.90;;;;;;4959206;28;20039;-80
2023/10/01 04:41:10;;;;;;;21.75;19.90;;;13.40;99.90;;;;;;4927626;28;20078;-77
2023/10/01 04:43:42;;;;;;;22.10;20.38;;;13.40;99.90;;;;;;4936165;29;20050;-78
2023/10/01 04:46:08;;;;;;;21.52;19.63;;;13.50;99.90;;;;;;4941678;28;20086;-79
2023/10/01 04:48:39;;;;;;;21.48;19.73;;;13.50;99.90;;;;;;4931157;28;20156;-79
2023/10/01 04:51:07;;;;;;;21.10;19.33;;;13.60;99.90;;;;;;4925250;29;20047;-80
2023/10/01 04:53:34;;;;;;;21.30;19.50;;;13.60;99.90;;;;;;4925843;29;20553;-79
2023/10/01 04:56:05;;;;;;;22.20;20.27;;;13.70;99.90;;;;;;4929977;28;20054;-79
2023/10/01 04:58:36;;;;;;;22.27;20.48;;;13.70;99.90;;;;;;4944513;28;20819;-79
2023/10/01 05:01:13;;;;;;;22.05;20.40;;;13.70;99.90;;;;;;4930451;28;20047;-77
2023/10/01 05:03:40;;;;;;;21.73;20.10;;;13.80;99.90;;;;;;4944886;28;20165;-79
2023/10/01 05:06:13;;;;;;;23.02;21.02;;;13.80;99.90;;;;;;4924196;28;20055;-78
2023/10/01 05:08:42;;;;;;;21.67;19.90;;;13.80;99.90;;;;;;4945743;28;20086;-78
2023/10/01 05:11:12;;;;;;;22.70;20.70;;;13.70;99.90;;;;;;4924188;28;20661;-78
2023/10/01 05:13:47;;;;;;;21.80;19.80;;;13.60;99.90;;;;;;4928155;28;20631;-79
2023/10/01 05:16:18;;;;;;;21.50;19.63;;;13.60;99.90;;;;;;4942043;28;20614;-77
2023/10/01 05:18:46;;;;;;;22.20;20.45;;;13.50;99.90;;;;;;4939137;28;20054;-79
2023/10/01 05:21:13;;;;;;;21.55;19.98;;;13.50;99.90;;;;;;4942147;28;20576;-79
2023/10/01 05:23:43;;;;;;;22.25;20.33;;;13.60;99.90;;;;;;4942429;28;20047;-79
2023/10/01 05:26:10;;;;;;;22.70;20.77;;;13.60;99.90;;;;;;4927556;28;20051;-78
2023/10/01 05:28:41;;;;;;;23.42;21.30;;;13.70;99.90;;;;;;4933906;28;20719;-78
2023/10/01 05:31:12;;;;;;;22.05;19.88;;;13.70;99.90;;;;;;4922041;29;20051;-78
2023/10/01 05:33:45;;;;;;;20.63;18.88;;;13.60;99.90;;;;;;4922677;29;20072;-78
2023/10/01 05:36:16;;;;;;;22.45;20.55;;;13.70;99.90;;;;;;4916293;28;20059;-78
2023/10/01 05:38:44;;;;;;;22.67;20.83;;;13.60;99.90;;;;;;4930340;28;20716;-78
2023/10/01 05:41:16;;;;;;;21.58;19.77;;;13.60;99.90;;;;;;4921144;29;20773;-79
2023/10/01 05:43:43;;;;;;;23.00;20.08;;;13.60;99.90;;;;;;4926406;29;20056;-78
2023/10/01 05:46:11;;;;;;;22.67;20.70;;;13.60;99.90;;;;;;4921125;29;20052;-79
2023/10/01 05:48:39;;;;;;;21.95;20.25;;;13.60;99.90;;;;;;4923517;29;20057;-78
2023/10/01 05:51:18;;;;;;;22.45;20.48;;;13.70;99.90;;;;;;4919230;29;20739;-78
2023/10/01 05:53:48;;;;;;;22.77;20.60;;;13.70;99.90;;;;;;4926000;29;20589;-78
2023/10/01 05:56:19;;;;;;;21.50;19.70;;;13.70;99.90;;;;;;4923686;29;20056;-80
2023/10/01 05:58:47;;;;;;;22.63;20.67;;;13.80;99.90;;;;;;4907689;29;20051;-77
2023/10/01 06:01:14;;;;;;;22.60;20.60;;;13.80;99.90;;;;;;4928074;29;20047;-80
2023/10/01 06:03:48;;;;;;;22.35;20.63;;;13.80;99.90;;;;;;4926761;29;20058;-79
2023/10/01 06:06:25;;;;;;;21.80;19.75;;;13.90;99.90;;;;;;4923761;28;20577;-80
2023/10/01 06:08:59;;;;;;;22.75;20.58;;;13.90;99.90;;;;;;4942891;28;20078;-79
2023/10/01 06:11:42;;;;;;;23.45;21.17;;;13.90;99.90;;;;;;4932720;28;20110;-79
2023/10/01 06:17:05;;;;;;;23.27;21.35;;;14.00;99.90;;;;;;4943920;28;20047;-79
2023/10/01 06:19:40;;;;;;;22.10;20.50;;;14.00;99.90;;;;;;4943042;28;20245;-79
2023/10/01 06:22:16;;;;;;;23.40;21.15;;;14.10;99.90;;;;;;4924498;28;20051;-79
2023/10/01 06:24:43;;;;;;;23.35;21.25;;;14.40;99.90;;;;;;4913424;28;20047;-81
2023/10/01 06:27:17;;;;;;;22.55;20.83;;;14.40;99.90;;;;;;4938699;28;20055;-79
2023/10/01 06:29:51;;;;;;;22.48;20.88;;;14.40;99.90;;;;;;4935962;28;20047;-78
2023/10/01 06:32:22;;;;;;;23.05;21.05;;;14.40;99.90;;;;;;4928512;28;20115;-78
2023/10/01 06:34:53;;;;;;;22.77;20.63;;;14.40;99.90;;;;;;4911406;28;20050;-78
2023/10/01 06:37:20;;;;;;;23.17;21.23;;;14.40;99.90;;;;;;4926438;28;20056;-76
2023/10/01 06:39:47;;;;;;;23.42;21.30;;;14.40;99.90;;;;;;4920267;28;20090;-76
2023/10/01 06:42:20;;;;;;;23.05;21.02;;;14.50;99.90;;;;;;4931835;28;20043;-77
2023/10/01 06:44:53;;;;;;;21.52;19.75;;;14.50;99.90;;;;;;4922489;28;20145;-76
2023/10/01 06:47:26;;;;;;;22.35;20.40;;;14.50;99.90;;;;;;4934683;28;20095;-76
2023/10/01 06:50:07;;;;;;;21.88;20.15;;;14.60;99.90;;;;;;4905208;28;20075;-76
2023/10/01 06:52:41;;;;;;;22.67;20.42;;;14.50;99.90;;;;;;4921812;28;20075;-76
2023/10/01 06:55:25;;;;;;;22.33;20.30;;;14.50;99.90;;;;;;4934439;28;20055;-75
2023/10/01 06:57:55;;;;;;;22.02;20.38;;;14.60;99.90;;;;;;4928087;28;20107;-76
2023/10/01 07:00:22;;;;;;;24.08;22.02;;;14.70;99.90;;;;;;4926437;28;20070;-76
2023/10/01 07:02:49;;;;;;;22.55;20.85;;;14.80;99.90;;;;;;4939167;28;20043;-77
2023/10/01 07:05:20;;;;;;;23.10;21.10;;;14.90;99.90;;;;;;4935201;28;20278;-78
2023/10/01 07:07:50;;;;;;;23.95;21.90;;;14.90;99.90;;;;;;4923420;28;20040;-79
2023/10/01 07:10:19;;;;;;;22.85;20.98;;;15.00;99.90;;;;;;4935835;28;20052;-78
2023/10/01 07:13:04;;;;;;;23.65;21.65;;;15.10;99.90;;;;;;4931385;28;20039;-78
2023/10/01 07:15:39;;;;;;;23.27;21.52;;;15.20;99.90;;;;;;4919865;28;20611;-79
2023/10/01 07:18:23;;;;;;;23.33;21.42;;;15.30;99.90;;;;;;4909884;28;20086;-78
2023/10/01 07:20:50;;;;;;;23.40;21.60;;;15.40;99.90;;;;;;4934807;28;20047;-78
2023/10/01 07:23:21;;;;;;;24.17;22.17;;;15.50;99.90;;;;;;4940515;28;20477;-78
2023/10/01 07:26:00;;;;;;;25.00;22.80;;;15.60;99.90;;;;;;4939557;28;20047;-79
2023/10/01 07:28:27;;;;;;;24.00;21.90;;;15.60;99.90;;;;;;4937957;28;20051;-79
2023/10/01 07:30:56;;;;;;;24.15;21.95;;;15.60;99.90;;;;;;4922270;28;20069;-79
2023/10/01 07:33:23;;;;;;;23.38;21.58;;;15.70;99.90;;;;;;4919412;28;20051;-78
2023/10/01 07:35:59;;;;;;;23.58;21.67;;;15.90;99.90;;;;;;4935647;28;20110;-79
2023/10/01 07:38:29;;;;;;;24.67;22.63;;;16.20;99.90;;;;;;4937830;28;20211;-79
2023/10/01 07:41:07;;;;;;;24.90;22.80;;;16.50;99.90;;;;;;4936873;28;20055;-79
2023/10/01 07:43:34;;;;;;;24.63;22.20;;;16.50;99.90;;;;;;4935916;28;20472;-79
2023/10/01 07:46:02;;;;;;;23.95;22.10;;;16.50;99.90;;;;;;4936556;28;20061;-79
2023/10/01 07:48:29;;;;;;;24.25;22.13;;;16.50;99.90;;;;;;4917331;28;20054;-79
2023/10/01 07:51:02;;;;;;;24.42;22.40;;;16.70;99.90;;;;;;4933477;28;20051;-77
2023/10/01 07:53:33;;;;;;;25.13;22.55;;;17.00;99.90;;;;;;4941950;28;20046;-77
2023/10/01 07:56:02;;;;;;;26.42;22.70;;;17.20;99.90;;;;;;4940900;28;20067;-78
2023/10/01 07:58:47;;;;;;;25.05;22.75;;;17.30;99.90;;;;;;4923572;28;20055;-78
2023/10/01 08:01:42;;;;;;;25.50;22.95;;;17.30;99.90;;;;;;4924552;28;20045;-77
2023/10/01 08:04:50;;;;;;;25.15;22.98;;;17.30;99.90;;;;;;4930153;28;20102;-78
2023/10/01 08:07:15;;;;;;;25.02;22.73;;;17.20;99.90;;;;;;4934179;28;20032;-78
2023/10/01 08:09:51;;;;;;;25.80;23.40;;;17.60;99.90;;;;;;4920890;28;20039;-77
2023/10/01 08:12:29;;;;;;;27.77;24.85;;;17.70;99.90;;;;;;4916566;28;20047;-77
2023/10/01 08:17:47;;;;;;;27.25;24.35;;;17.90;99.90;;;;;;4937091;28;20055;-77
2023/10/01 08:20:17;;;;;;;27.48;24.73;;;18.00;99.90;;;;;;4934576;28;20784;-77
2023/10/01 08:22:44;;;;;;;28.35;25.50;;;18.00;99.90;;;;;;4921580;28;20419;-77
2023/10/01 08:25:12;;;;;;;27.40;24.75;;;18.00;99.90;;;;;;4921885;29;20051;-78
2023/10/01 08:28:08;;;;;;;29.17;26.55;;;17.80;99.90;;;;;;4920225;28;20083;-78
2023/10/01 08:33:22;;;;;;;27.27;24.63;;;17.70;99.90;;;;;;4913000;28;20059;-77
2023/10/01 08:36:01;;;;;;;27.90;25.00;;;17.60;99.90;;;;;;4937515;28;20138;-77
2023/10/01 08:38:36;;;;;;;27.80;25.00;;;17.50;99.90;;;;;;4925807;28;20055;-77
2023/10/01 08:41:07;;;;;;;26.77;24.15;;;17.60;99.90;;;;;;4934336;28;20050;-78
2023/10/01 08:43:37;;;;;;;28.40;25.50;;;17.60;99.90;;;;;;4921705;28;20046;-77
2023/10/01 08:46:18;;;;;;;28.55;25.77;;;17.50;99.90;;;;;;4933365;28;20043;-77
2023/10/01 08:48:46;;;;;;;27.25;24.40;;;17.50;99.90;;;;;;4946345;28;20123;-77
2023/10/01 08:51:17;;;;;;;28.50;25.55;;;17.50;99.90;;;;;;4947240;28;20047;-77
2023/10/01 08:53:46;;;;;;;28.70;25.65;;;17.60;99.90;;;;;;4930948;28;20047;-79
2023/10/01 08:56:32;;;;;;;28.10;25.25;;;17.60;99.90;;;;;;4926765;29;20043;-76
2023/10/01 08:59:03;;;;;;;27.92;25.00;;;17.60;99.90;;;;;;4928175;28;20114;-77
2023/10/01 09:01:31;;;;;;;28.73;26.20;;;17.60;99.90;;;;;;4936215;28;20106;-76
2023/10/01 09:04:29;;;;;;;28.13;25.23;;;17.50;99.90;;;;;;4941320;28;20043;-77
2023/10/01 09:06:58;;;;;;;28.58;25.60;;;17.50;99.90;;;;;;4923085;28;20039;-77
2023/10/01 09:09:26;;;;;;;27.60;24.67;;;17.50;99.90;;;;;;4924081;28;20055;-77
2023/10/01 09:11:58;;;;;;;29.00;26.23;;;17.50;99.90;;;;;;4936279;28;20050;-78
2023/10/01 09:14:38;;;;;;;27.92;24.95;;;17.60;99.90;;;;;;4938632;28;20367;-77
2023/10/01 09:17:24;;;;;;;27.25;24.65;;;17.70;99.90;;;;;;4924093;28;20053;-78
2023/10/01 09:19:54;;;;;;;27.10;24.55;;;17.80;99.90;;;;;;4923953;28;20051;-78
2023/10/01 09:25:21;;;;;;;28.83;26.05;;;18.00;99.90;;;;;;4918326;28;20039;-75
2023/10/01 09:28:02;;;;;;;30.35;26.92;;;18.00;99.90;;;;;;4934330;28;20040;-75
2023/10/01 09:30:35;;;;;;;28.75;26.35;;;18.20;99.90;;;;;;4935310;28;20145;-75
2023/10/01 09:33:05;;;;;;;29.05;26.38;;;18.30;99.90;;;;;;4935428;28;20617;-76
2023/10/01 09:35:49;;;;;;;28.77;25.90;;;18.70;99.90;;;;;;4932996;28;20043;-77
2023/10/01 09:38:27;;;;;;;31.15;27.55;;;18.80;99.90;;;;;;4934459;28;20707;-77
2023/10/01 09:40:58;;;;;;;26.95;24.27;;;19.10;99.90;;;;;;4933010;28;20039;-76
2023/10/01 09:43:27;;;;;;;28.38;25.15;;;19.40;99.90;;;;;;4934418;28;20043;-76
2023/10/01 09:46:00;;;;;;;28.55;25.92;;;19.60;99.90;;;;;;4906225;28;20054;-75
2023/10/01 09:48:29;;;;;;;27.77;24.92;;;19.60;99.90;;;;;;4921035;28;20095;-76
2023/10/01 09:51:15;;;;;;;29.60;26.75;;;19.60;99.90;;;;;;4915313;28;20043;-76
2023/10/01 09:54:02;;;;;;;28.95;25.98;;;19.70;99.90;;;;;;4916499;28;20411;-76
2023/10/01 09:56:31;;;;;;;29.65;26.92;;;20.10;99.90;;;;;;4904376;28;20822;-76
2023/10/01 09:59:07;;;;;;;28.27;25.55;;;20.40;99.90;;;;;;4918478;28;20520;-75
2023/10/01 10:01:39;;;;;;;28.48;25.70;;;20.50;99.90;;;;;;4931787;28;20058;-75
2023/10/01 10:04:12;;;;;;;28.60;25.95;;;20.20;99.90;;;;;;4920499;28;20054;-75
2023/10/01 10:06:39;;;;;;;29.38;26.55;;;20.00;99.90;;;;;;4934251;28;20126;-75
2023/10/01 10:09:25;;;;;;;29.08;26.40;;;19.80;99.90;;;;;;4906951;28;20050;-75
2023/10/01 10:11:53;;;;;;;29.13;26.00;;;19.90;99.90;;;;;;4918886;28;20039;-75
2023/10/01 10:14:25;;;;;;;30.45;27.30;;;20.10;99.90;;;;;;4906109;28;20047;-75
2023/10/01 10:16:56;;;;;;;28.88;26.15;;;20.40;99.90;;;;;;4931410;28;20047;-75
2023/10/01 10:19:25;;;;;;;29.58;26.27;;;20.50;99.90;;;;;;4937774;28;20055;-76
2023/10/01 10:24:34;;;;;;;28.38;25.60;;;20.30;99.90;;;;;;4919770;29;20053;-76
2023/10/01 10:27:07;;;;;;;27.83;25.33;;;20.30;99.90;;;;;;4919427;28;20085;-76
2023/10/01 10:29:46;;;;;;;29.30;26.25;;;20.40;99.90;;;;;;4914811;28;20058;-76
2023/10/01 10:32:14;;;;;;;27.98;25.20;;;20.50;99.90;;;;;;4915583;29;20161;-76
2023/10/01 10:35:03;;;;;;;30.38;27.55;;;20.60;99.90;;;;;;4915968;28;20055;-76
2023/10/01 10:37:37;;;;;;;27.83;25.35;;;20.70;99.90;;;;;;4918910;28;20138;-76
2023/10/01 10:42:57;;;;;;;28.20;25.38;;;20.40;99.90;;;;;;4911776;28;20044;-76
2023/10/01 10:45:26;;;;;;;29.63;27.02;;;20.20;99.90;;;;;;4933123;28;20102;-75
2023/10/01 10:48:03;;;;;;;31.77;28.83;;;20.50;99.90;;;;;;4933686;28;20678;-76
2023/10/01 10:50:46;;;;;;;30.33;27.23;;;20.80;99.90;;;;;;4928118;28;20707;-75
2023/10/01 10:53:37;;;;;;;32.75;29.15;;;21.00;99.90;;;;;;4929508;28;20122;-74
2023/10/01 10:56:14;;;;;;;32.88;29.67;;;21.00;99.90;;;;;;4924155;28;20403;-76
2023/10/01 10:58:53;;;;;;;30.38;27.33;;;21.20;99.90;;;;;;4910035;28;20142;-75
2023/10/01 11:01:20;;;;;;;29.38;26.60;;;21.10;99.90;;;;;;4921212;29;20047;-75
2023/10/01 11:03:57;;;;;;;31.08;28.35;;;21.00;99.90;;;;;;4915806;28;20047;-75
2023/10/01 11:06:29;;;;;;;30.08;27.38;;;21.10;99.90;;;;;;4898907;29;20043;-75
2023/10/01 11:08:58;;;;;;;31.17;28.38;;;21.10;99.90;;;;;;4930545;28;20043;-75
2023/10/01 11:11:30;;;;;;;30.75;27.77;;;21.20;99.90;;;;;;4916257;29;20066;-76
2023/10/01 11:14:16;;;;;;;30.55;27.42;;;21.30;99.90;;;;;;4915767;28;20258;-75
2023/10/01 11:16:49;;;;;;;31.58;27.67;;;21.30;99.90;;;;;;4915870;28;20050;-76
2023/10/01 11:19:21;;;;;;;30.95;27.95;;;21.30;99.90;;;;;;4917581;29;20039;-73
2023/10/01 11:21:55;;;;;;;32.30;28.45;;;21.50;99.90;;;;;;4913523;28;20453;-75
2023/10/01 11:24:29;;;;;;;31.35;28.17;;;21.50;99.90;;;;;;4926630;28;20102;-75
2023/10/01 11:27:22;;;;;;;31.17;28.17;;;21.70;99.90;;;;;;4915840;28;20051;-75
2023/10/01 11:29:58;;;;;;;32.35;29.45;;;22.00;99.90;;;;;;4916604;28;20047;-76
2023/10/01 11:32:58;;;;;;;31.05;28.00;;;22.00;99.90;;;;;;4913746;29;20102;-76
2023/10/01 11:35:35;;;;;;;32.00;29.08;;;22.30;99.90;;;;;;4916889;29;20059;-76
2023/10/01 11:38:13;;;;;;;30.40;27.50;;;22.40;99.90;;;;;;4917863;28;20117;-75
2023/10/01 11:43:36;;;;;;;30.00;27.13;;;22.30;99.90;;;;;;4935355;28;20509;-75
2023/10/01 11:46:57;;;;;;;32.03;28.92;;;22.30;99.90;;;;;;4914488;28;20047;-75
2023/10/01 11:49:32;;;;;;;30.85;27.92;;;22.30;99.90;;;;;;4931459;28;20090;-75
2023/10/01 11:52:02;;;;;;;32.42;29.17;;;22.30;99.90;;;;;;4928096;28;20102;-75
2023/10/01 11:54:45;;;;;;;31.60;28.60;;;22.10;99.90;;;;;;4933268;28;20092;-76
2023/10/01 11:57:31;;;;;;;32.63;29.83;;;22.00;99.90;;;;;;4932864;28;20681;-75
2023/10/01 12:00:01;;;;;;;32.15;29.25;;;22.00;99.90;;;;;;4926041;28;21108;-75
2023/10/01 12:02:43;;;;;;;32.33;28.98;;;22.00;99.90;;;;;;4918520;29;20575;-75
2023/10/01 12:05:13;;;;;;;31.58;28.65;;;22.10;99.90;;;;;;4916799;28;20624;-75
2023/10/01 12:07:40;;;;;;;32.63;29.45;;;22.20;99.90;;;;;;4913018;28;20074;-75
2023/10/01 12:10:31;;;;;;;32.92;29.75;;;22.20;99.90;;;;;;4932013;28;20146;-75
2023/10/01 12:12:56;;;;;;;32.33;29.30;;;22.30;99.90;;;;;;4924949;28;20047;-75
2023/10/01 12:15:37;;;;;;;32.50;28.90;;;22.10;99.90;;;;;;4930830;28;20102;-75
2023/10/01 12:18:14;;;;;;;32.47;29.45;;;22.40;99.90;;;;;;4934549;28;20055;-75
2023/10/01 12:20:50;;;;;;;32.92;29.60;;;22.30;99.90;;;;;;4929276;28;20498;-75
2023/10/01 12:23:19;;;;;;;31.83;28.83;;;22.30;99.90;;;;;;4928540;28;20043;-75
2023/10/01 12:25:58;;;;;;;31.45;28.55;;;22.40;99.90;;;;;;4914862;28;20051;-75
2023/10/01 12:28:27;;;;;;;31.45;28.50;;;22.40;99.90;;;;;;4934138;28;20055;-75
2023/10/01 12:30:58;;;;;;;34.15;30.70;;;22.50;99.90;;;;;;4916500;28;20047;-75
2023/10/01 12:33:38;;;;;;;32.58;29.40;;;22.60;99.90;;;;;;4933623;28;20047;-76
2023/10/01 12:44:25;;;;;;;33.67;30.35;;;22.60;99.90;;;;;;4931606;28;20142;-76
2023/10/01 12:46:54;;;;;;;32.22;29.33;;;22.60;99.90;;;;;;4902738;28;20051;-76
2023/10/01 12:49:21;;;;;;;33.40;30.42;;;22.70;99.90;;;;;;4938050;28;20051;-76
2023/10/01 12:51:48;;;;;;;32.05;29.10;;;22.90;99.90;;;;;;4916208;28;20039;-76
2023/10/01 12:54:18;;;;;;;33.75;30.63;;;22.90;99.90;;;;;;4938636;28;20070;-76
2023/10/01 12:57:02;;;;;;;32.70;29.80;;;23.00;99.90;;;;;;4930664;28;20036;-76
2023/10/01 12:59:39;;;;;;;32.03;28.88;;;22.90;99.90;;;;;;4920047;29;20150;-76
2023/10/01 13:02:22;;;;;;;31.85;28.85;;;22.70;99.90;;;;;;4919952;28;20054;-76
2023/10/01 13:07:48;;;;;;;32.42;29.30;;;22.60;99.90;;;;;;4935974;28;20536;-76
2023/10/01 13:10:16;;;;;;;31.92;28.88;;;22.40;99.90;;;;;;4938061;28;20046;-76
2023/10/01 13:12:56;;;;;;;32.55;29.55;;;22.40;99.90;;;;;;4915612;28;20766;-76
2023/10/01 13:15:30;;;;;;;31.45;28.73;;;22.60;99.90;;;;;;4936950;28;20047;-76
2023/10/01 13:18:01;;;;;;;29.63;27.02;;;22.40;99.90;;;;;;4929386;28;20063;-76
2023/10/01 13:20:29;;;;;;;31.05;28.13;;;22.30;99.90;;;;;;4920301;29;20109;-77
2023/10/01 13:22:59;;;;;;;31.92;28.83;;;22.20;99.90;;;;;;4933624;28;20610;-76
2023/10/01 13:25:26;;;;;;;32.47;29.45;;;22.20;99.90;;;;;;4937789;28;20055;-77
2023/10/01 13:28:06;;;;;;;32.30;29.15;;;22.40;99.90;;;;;;4916099;28;20050;-76
2023/10/01 13:33:25;;;;;;;30.52;27.75;;;22.60;99.90;;;;;;4938456;28;20516;-77
2023/10/01 13:35:56;;;;;;;32.08;28.95;;;22.90;99.90;;;;;;4932635;28;20058;-77
2023/10/01 14:08:45;;;;;;;28.15;25.77;;;22.30;99.90;;;;;;4920843;29;20110;-77
2023/10/01 14:11:26;;;;;;;30.38;27.38;;;22.30;99.90;;;;;;4915019;28;20087;-78
2023/10/01 14:13:53;;;;;;;29.52;27.10;;;22.50;99.90;;;;;;4917261;28;20109;-78
2023/10/01 14:16:23;;;;;;;30.38;27.35;;;22.30;99.90;;;;;;4933838;28;20134;-77
2023/10/01 14:18:55;;;;;;;32.30;29.27;;;22.30;99.90;;;;;;4937533;28;20047;-77
2023/10/01 14:21:24;;;;;;;30.67;27.98;;;22.20;99.90;;;;;;4930451;29;20549;-77